createdAt,value
2023-01-29T00:01:02.533Z,38.28
2023-01-29T00:02:05.937Z,33.03
2023-01-29T00:03:09.110Z,34.15
2023-01-29T00:04:12.205Z,35.55
2023-01-29T00:05:26.912Z,37.20
2023-01-29T00:06:31.436Z,36.28
2023-01-29T00:07:34.653Z,34.22
2023-01-29T00:08:38.688Z,38.15
2023-01-29T00:09:41.849Z,32.40
2023-01-29T00:10:44.962Z,32.20
2023-01-29T00:11:48.245Z,32.78
2023-01-29T00:12:52.054Z,33.83
2023-01-29T00:13:55.337Z,35.13
2023-01-29T00:14:58.398Z,33.17
2023-01-29T00:16:02.303Z,39.97
2023-01-29T00:17:05.656Z,36.30
2023-01-29T00:18:09.790Z,35.28
2023-01-29T00:19:13.011Z,30.90
2023-01-29T00:20:16.807Z,31.95
2023-01-29T00:21:22.489Z,34.42
2023-01-29T00:22:25.510Z,32.25
2023-01-29T00:23:28.723Z,32.30
2023-01-29T00:24:31.819Z,33.28
2023-01-29T00:25:34.826Z,31.10
2023-01-29T00:26:39.721Z,34.60
2023-01-29T00:27:44.289Z,36.08
2023-01-29T00:28:47.548Z,35.17
2023-01-29T00:30:09.760Z,38.47
2023-01-29T00:31:22.029Z,36.20
2023-01-29T00:32:25.038Z,38.08
2023-01-29T00:33:33.654Z,34.08
2023-01-29T00:34:36.623Z,41.72
2023-01-29T00:35:41.073Z,42.72
2023-01-29T00:36:45.796Z,47.35
2023-01-29T00:38:59.266Z,39.65
2023-01-29T00:40:02.256Z,87.22
2023-01-29T00:41:35.088Z,82.20
2023-01-29T00:42:56.901Z,68.28
2023-01-29T00:44:20.171Z,60.63
2023-01-29T00:45:23.177Z,44.13
2023-01-29T00:46:26.196Z,41.15
2023-01-29T00:47:33.787Z,47.70
2023-01-29T00:48:37.840Z,46.95
2023-01-29T00:49:40.933Z,41.92
2023-01-29T00:50:43.948Z,39.47
2023-01-29T00:52:06.927Z,38.92
2023-01-29T00:53:09.900Z,39.60
2023-01-29T00:54:12.998Z,41.83
2023-01-29T00:55:16.212Z,39.42
2023-01-29T00:56:19.249Z,39.75
2023-01-29T00:57:23.182Z,35.45
2023-01-29T00:58:28.690Z,37.45
2023-01-29T00:59:31.971Z,37.05
2023-01-29T01:00:35.032Z,40.22
2023-01-29T01:01:56.894Z,53.65
2023-01-29T01:03:05.941Z,48.55
2023-01-29T01:04:11.175Z,55.92
2023-01-29T01:05:19.399Z,73.97
2023-01-29T01:06:25.530Z,75.68
2023-01-29T01:07:28.449Z,74.05
2023-01-29T01:08:51.949Z,66.85
2023-01-29T01:10:17.681Z,58.40
2023-01-29T01:11:21.977Z,48.30
2023-01-29T01:12:26.668Z,45.40
2023-01-29T01:13:32.026Z,54.90
2023-01-29T01:14:38.027Z,59.40
2023-01-29T01:15:41.093Z,53.72
2023-01-29T01:16:46.371Z,44.08
2023-01-29T01:17:53.404Z,36.53
2023-01-29T01:18:57.458Z,36.03
2023-01-29T01:20:00.969Z,31.30
2023-01-29T01:21:04.526Z,34.60
2023-01-29T01:22:07.729Z,32.95
2023-01-29T01:23:10.763Z,36.72
2023-01-29T01:24:14.305Z,33.20
2023-01-29T01:25:19.110Z,35.38
2023-01-29T01:26:22.304Z,34.38
2023-01-29T01:27:26.736Z,36.15
2023-01-29T01:28:31.267Z,37.00
2023-01-29T01:29:34.497Z,33.60
2023-01-29T01:30:37.670Z,30.23
2023-01-29T01:31:40.921Z,31.67
2023-01-29T01:32:43.903Z,36.15
2023-01-29T01:33:48.739Z,33.33
2023-01-29T01:34:52.739Z,35.28
2023-01-29T01:35:56.718Z,33.88
2023-01-29T01:36:59.645Z,36.55
2023-01-29T01:38:06.515Z,37.08
2023-01-29T01:39:09.586Z,39.30
2023-01-29T01:40:19.415Z,35.35
2023-01-29T01:41:24.313Z,36.03
2023-01-29T01:42:30.826Z,36.03
2023-01-29T01:43:59.675Z,36.47
2023-01-29T01:45:06.644Z,32.58
2023-01-29T01:46:10.081Z,32.55
2023-01-29T01:47:13.625Z,35.33
2023-01-29T01:48:27.028Z,34.88
2023-01-29T01:49:30.255Z,36.10
2023-01-29T01:50:43.186Z,33.33
2023-01-29T01:51:51.666Z,29.77
2023-01-29T01:53:00.671Z,37.53
2023-01-29T01:54:14.319Z,31.35
2023-01-29T01:55:22.506Z,31.02
2023-01-29T01:56:40.772Z,33.97
2023-01-29T01:57:48.363Z,33.33
2023-01-29T01:58:59.148Z,34.63
2023-01-29T02:00:10.371Z,36.75
2023-01-29T02:01:14.631Z,33.70
2023-01-29T02:02:36.973Z,32.78
2023-01-29T02:04:08.794Z,32.45
2023-01-29T02:05:33.026Z,30.73
2023-01-29T02:06:55.091Z,34.55
2023-01-29T02:08:17.708Z,38.13
2023-01-29T02:09:35.882Z,34.88
2023-01-29T02:10:44.847Z,34.50
2023-01-29T02:11:48.317Z,30.12
2023-01-29T02:12:51.860Z,31.80
2023-01-29T02:13:54.894Z,33.00
2023-01-29T02:14:58.022Z,35.53
2023-01-29T02:16:00.981Z,33.80
2023-01-29T02:17:04.140Z,31.52
2023-01-29T02:18:08.509Z,33.67
2023-01-29T02:19:27.943Z,31.17
2023-01-29T02:20:32.641Z,31.90
2023-01-29T02:22:17.324Z,31.10
2023-01-29T02:23:38.591Z,38.17
2023-01-29T02:24:51.148Z,33.25
2023-01-29T02:26:39.606Z,31.17
2023-01-29T02:28:04.324Z,33.58
2023-01-29T02:29:40.679Z,33.83
2023-01-29T02:31:02.114Z,36.25
2023-01-29T02:32:42.548Z,34.40
2023-01-29T02:34:04.067Z,34.75
2023-01-29T02:35:30.388Z,33.60
2023-01-29T02:36:53.327Z,35.40
2023-01-29T02:38:18.349Z,31.37
2023-01-29T02:39:44.487Z,36.53
2023-01-29T02:40:54.463Z,33.08
2023-01-29T02:42:21.996Z,35.00
2023-01-29T02:43:37.559Z,32.70
2023-01-29T02:44:51.354Z,37.20
2023-01-29T02:46:09.701Z,30.70
2023-01-29T02:47:35.979Z,29.15
2023-01-29T02:48:50.506Z,35.35
2023-01-29T02:50:13.341Z,33.15
2023-01-29T02:51:27.012Z,33.10
2023-01-29T02:52:40.105Z,36.00
2023-01-29T02:53:56.212Z,32.40
2023-01-29T02:55:22.206Z,26.85
2023-01-29T02:56:35.239Z,37.20
2023-01-29T02:57:42.831Z,32.13
2023-01-29T02:58:52.466Z,28.52
2023-01-29T03:00:00.897Z,32.35
2023-01-29T03:01:13.970Z,31.92
2023-01-29T03:02:26.743Z,34.90
2023-01-29T03:03:44.928Z,33.40
2023-01-29T03:04:55.221Z,34.28
2023-01-29T03:06:23.656Z,34.15
2023-01-29T03:07:47.045Z,33.90
2023-01-29T03:08:56.745Z,32.50
2023-01-29T03:10:01.750Z,35.75
2023-01-29T03:11:07.722Z,28.05
2023-01-29T03:12:34.165Z,34.20
2023-01-29T03:13:48.350Z,35.45
2023-01-29T03:15:10.641Z,33.95
2023-01-29T03:16:38.045Z,34.35
2023-01-29T03:17:51.780Z,37.03
2023-01-29T03:19:09.525Z,34.42
2023-01-29T03:20:17.996Z,34.70
2023-01-29T03:21:51.686Z,33.65
2023-01-29T03:23:01.665Z,35.25
2023-01-29T03:24:25.332Z,34.20
2023-01-29T03:25:48.099Z,33.30
2023-01-29T03:27:12.059Z,37.45
2023-01-29T03:28:36.860Z,35.72
2023-01-29T03:30:01.557Z,33.05
2023-01-29T03:31:26.868Z,32.67
2023-01-29T03:32:31.069Z,35.83
2023-01-29T03:33:44.689Z,34.33
2023-01-29T03:34:54.829Z,35.05
2023-01-29T03:36:03.716Z,35.63
2023-01-29T03:37:15.529Z,38.22
2023-01-29T03:38:18.838Z,36.60
2023-01-29T03:39:24.601Z,34.22
2023-01-29T03:40:33.332Z,36.22
2023-01-29T03:41:56.572Z,33.10
2023-01-29T03:43:28.413Z,30.90
2023-01-29T03:45:01.571Z,29.50
2023-01-29T03:46:19.052Z,29.90
2023-01-29T03:47:48.228Z,33.30
2023-01-29T03:49:01.882Z,30.37
2023-01-29T03:50:16.464Z,31.50
2023-01-29T03:51:32.015Z,26.42
2023-01-29T03:53:05.673Z,35.10
2023-01-29T03:54:40.930Z,36.83
2023-01-29T03:55:56.466Z,33.17
2023-01-29T03:57:21.400Z,34.15
2023-01-29T03:58:33.280Z,32.35
2023-01-29T03:59:54.024Z,30.40
2023-01-29T04:01:04.416Z,31.87
2023-01-29T04:02:28.215Z,32.55
2023-01-29T04:03:44.098Z,30.40
2023-01-29T04:04:52.213Z,27.70
2023-01-29T04:06:10.096Z,37.22
2023-01-29T04:07:19.247Z,32.47
2023-01-29T04:08:29.477Z,33.78
2023-01-29T04:09:38.243Z,27.23
2023-01-29T04:10:43.349Z,34.35
2023-01-29T04:12:00.248Z,36.72
2023-01-29T04:13:09.835Z,26.75
2023-01-29T04:14:14.390Z,34.58
2023-01-29T04:15:19.357Z,28.67
2023-01-29T04:16:28.589Z,28.80
2023-01-29T04:17:38.321Z,25.98
2023-01-29T04:18:46.312Z,27.77
2023-01-29T04:19:49.905Z,29.12
2023-01-29T04:20:53.946Z,30.10
2023-01-29T04:22:16.197Z,29.10
2023-01-29T04:23:24.812Z,31.27
2023-01-29T04:24:28.240Z,28.15
2023-01-29T04:25:42.427Z,25.55
2023-01-29T04:26:48.189Z,29.65
2023-01-29T04:28:09.930Z,29.40
2023-01-29T04:29:44.487Z,24.02
2023-01-29T04:30:52.179Z,23.23
2023-01-29T04:32:05.921Z,26.60
2023-01-29T04:33:24.140Z,25.88
2023-01-29T04:34:36.255Z,24.17
2023-01-29T04:36:06.718Z,21.65
2023-01-29T04:37:22.325Z,23.20
2023-01-29T04:38:26.084Z,22.60
2023-01-29T04:39:42.485Z,22.92
2023-01-29T04:40:57.453Z,24.85
2023-01-29T04:42:34.002Z,26.17
2023-01-29T04:43:53.468Z,23.87
2023-01-29T04:45:15.854Z,27.30
2023-01-29T04:46:23.332Z,25.73
2023-01-29T04:47:29.416Z,21.90
2023-01-29T04:48:51.069Z,25.30
2023-01-29T04:50:37.540Z,24.17
2023-01-29T04:52:09.087Z,23.60
2023-01-29T04:53:22.665Z,26.62
2023-01-29T04:54:45.860Z,19.92
2023-01-29T04:56:36.957Z,26.85
2023-01-29T04:58:01.237Z,20.17
2023-01-29T04:59:18.255Z,25.83
2023-01-29T05:00:28.219Z,21.48
2023-01-29T05:01:33.656Z,23.05
2023-01-29T05:02:40.104Z,24.02
2023-01-29T05:03:47.182Z,18.42
2023-01-29T05:04:51.092Z,28.77
2023-01-29T05:05:57.692Z,23.83
2023-01-29T05:07:09.266Z,22.05
2023-01-29T05:08:16.219Z,22.27
2023-01-29T05:09:20.661Z,26.10
2023-01-29T05:10:25.348Z,26.45
2023-01-29T05:11:32.553Z,19.62
2023-01-29T05:12:37.388Z,21.05
2023-01-29T05:13:43.031Z,26.00
2023-01-29T05:14:47.818Z,18.33
2023-01-29T05:16:09.627Z,22.20
2023-01-29T05:17:20.351Z,19.75
2023-01-29T05:18:24.018Z,24.40
2023-01-29T05:19:27.381Z,23.90
2023-01-29T05:20:37.140Z,22.83
2023-01-29T05:21:43.462Z,21.85
2023-01-29T05:22:49.048Z,20.35
2023-01-29T05:24:12.597Z,24.80
2023-01-29T05:25:23.859Z,21.33
2023-01-29T05:26:46.939Z,22.25
2023-01-29T05:28:10.458Z,23.33
2023-01-29T05:29:13.569Z,23.40
2023-01-29T05:30:17.269Z,23.25
2023-01-29T05:31:21.191Z,21.87
2023-01-29T05:32:24.284Z,25.27
2023-01-29T05:33:32.175Z,22.92
2023-01-29T05:34:35.232Z,16.48
2023-01-29T05:35:38.208Z,27.50
2023-01-29T05:36:41.488Z,23.40
2023-01-29T05:37:44.839Z,22.17
2023-01-29T05:39:07.657Z,24.27
2023-01-29T05:40:11.174Z,22.25
2023-01-29T05:41:16.651Z,20.27
2023-01-29T05:42:19.649Z,26.23
2023-01-29T05:43:25.554Z,24.15
2023-01-29T05:44:28.507Z,21.60
2023-01-29T05:45:31.825Z,25.33
2023-01-29T05:46:34.786Z,23.35
2023-01-29T05:47:37.748Z,24.65
2023-01-29T05:48:41.153Z,24.60
2023-01-29T05:49:44.286Z,28.67
2023-01-29T05:50:47.428Z,22.77
2023-01-29T05:51:50.508Z,20.62
2023-01-29T05:52:58.051Z,21.80
2023-01-29T05:54:01.136Z,23.52
2023-01-29T05:55:04.543Z,27.17
2023-01-29T05:56:07.904Z,20.88
2023-01-29T05:57:10.922Z,23.95
2023-01-29T05:58:14.427Z,24.37
2023-01-29T05:59:17.660Z,23.92
2023-01-29T06:00:21.085Z,25.48
2023-01-29T06:01:26.357Z,22.02
2023-01-29T06:02:31.869Z,21.75
2023-01-29T06:03:35.042Z,23.05
2023-01-29T06:04:38.013Z,23.10
2023-01-29T06:05:41.481Z,22.42
2023-01-29T06:06:44.970Z,21.33
2023-01-29T06:07:48.337Z,24.23
2023-01-29T06:08:51.672Z,24.65
2023-01-29T06:09:54.948Z,19.50
2023-01-29T06:10:58.251Z,27.70
2023-01-29T06:12:01.253Z,19.60
2023-01-29T06:13:04.504Z,21.60
2023-01-29T06:14:07.482Z,21.62
2023-01-29T06:15:11.214Z,20.05
2023-01-29T06:16:15.220Z,20.42
2023-01-29T06:17:18.413Z,21.05
2023-01-29T06:18:22.241Z,22.40
2023-01-29T06:19:25.496Z,19.08
2023-01-29T06:20:28.483Z,22.17
2023-01-29T06:21:31.651Z,22.15
2023-01-29T06:22:35.027Z,18.30
2023-01-29T06:23:38.454Z,22.17
2023-01-29T06:24:41.537Z,18.37
2023-01-29T06:25:44.518Z,21.42
2023-01-29T06:26:47.707Z,20.33
2023-01-29T06:27:51.861Z,20.15
2023-01-29T06:28:55.143Z,16.67
2023-01-29T06:29:59.656Z,20.85
2023-01-29T06:31:23.764Z,21.92
2023-01-29T06:32:31.823Z,19.12
2023-01-29T06:33:35.211Z,18.48
2023-01-29T06:34:38.549Z,17.45
2023-01-29T06:35:41.626Z,16.27
2023-01-29T06:36:44.659Z,17.80
2023-01-29T06:37:47.819Z,21.92
2023-01-29T06:38:51.148Z,18.10
2023-01-29T06:39:54.348Z,17.70
2023-01-29T06:40:57.942Z,18.58
2023-01-29T06:42:00.938Z,18.33
2023-01-29T06:43:03.991Z,19.90
2023-01-29T06:44:08.695Z,20.77
2023-01-29T06:45:11.981Z,20.17
2023-01-29T06:46:15.078Z,19.45
2023-01-29T06:47:18.109Z,20.37
2023-01-29T06:48:22.021Z,17.67
2023-01-29T06:49:25.484Z,21.67
2023-01-29T06:50:28.491Z,17.45
2023-01-29T06:51:31.744Z,19.25
2023-01-29T06:52:35.740Z,25.73
2023-01-29T06:53:40.034Z,34.05
2023-01-29T06:54:42.985Z,17.23
2023-01-29T06:55:52.581Z,26.17
2023-01-29T06:56:56.562Z,20.70
2023-01-29T06:57:59.594Z,17.92
2023-01-29T06:59:03.181Z,19.92
2023-01-29T07:00:06.903Z,22.37
2023-01-29T07:01:17.444Z,22.90
2023-01-29T07:02:28.404Z,18.52
2023-01-29T07:03:31.315Z,18.50
2023-01-29T07:04:35.818Z,17.12
2023-01-29T07:05:39.343Z,18.23
2023-01-29T07:06:42.421Z,16.52
2023-01-29T07:08:53.510Z,17.62
2023-01-29T07:09:56.550Z,16.27
2023-01-29T07:11:02.627Z,21.70
2023-01-29T07:12:06.136Z,18.02
2023-01-29T07:13:09.180Z,19.27
2023-01-29T07:14:12.306Z,15.02
2023-01-29T07:15:19.868Z,17.30
2023-01-29T07:16:23.714Z,19.70
2023-01-29T07:17:26.840Z,15.77
2023-01-29T07:18:30.909Z,18.35
2023-01-29T07:19:35.446Z,17.62
2023-01-29T07:20:40.891Z,14.10
2023-01-29T07:21:43.818Z,18.90
2023-01-29T07:22:46.940Z,21.80
2023-01-29T07:23:50.247Z,16.27
2023-01-29T07:24:53.338Z,18.58
2023-01-29T07:25:56.364Z,14.40
2023-01-29T07:26:59.338Z,16.50
2023-01-29T07:28:02.639Z,16.20
2023-01-29T07:29:06.171Z,13.73
2023-01-29T07:30:10.018Z,16.55
2023-01-29T07:31:15.512Z,16.00
2023-01-29T07:32:18.622Z,16.95
2023-01-29T07:33:25.549Z,13.25
2023-01-29T07:34:28.747Z,16.23
2023-01-29T07:35:32.663Z,16.80
2023-01-29T07:36:37.412Z,17.27
2023-01-29T07:37:40.546Z,14.45
2023-01-29T07:38:44.347Z,18.10
2023-01-29T07:39:48.053Z,13.75
2023-01-29T07:40:53.038Z,14.07
2023-01-29T07:41:56.022Z,14.15
2023-01-29T07:43:04.217Z,16.37
2023-01-29T07:44:07.505Z,16.95
2023-01-29T07:45:11.884Z,16.33
2023-01-29T07:46:15.141Z,16.92
2023-01-29T07:47:18.525Z,15.30
2023-01-29T07:48:21.873Z,17.12
2023-01-29T07:49:25.220Z,18.37
2023-01-29T07:50:28.535Z,18.02
2023-01-29T07:51:31.783Z,16.80
2023-01-29T07:52:35.181Z,16.25
2023-01-29T07:53:38.325Z,15.65
2023-01-29T07:54:41.419Z,16.20
2023-01-29T07:55:45.713Z,18.37
2023-01-29T07:56:48.823Z,19.20
2023-01-29T07:58:02.711Z,17.12
2023-01-29T07:59:06.198Z,17.95
2023-01-29T08:00:12.527Z,13.73
2023-01-29T08:01:19.062Z,18.23
2023-01-29T08:02:22.389Z,17.48
2023-01-29T08:03:25.446Z,23.67
2023-01-29T08:04:28.577Z,15.00
2023-01-29T08:05:32.040Z,14.40
2023-01-29T08:06:35.011Z,15.88
2023-01-29T08:07:38.151Z,24.42
2023-01-29T08:08:42.421Z,37.55
2023-01-29T08:09:48.565Z,58.65
2023-01-29T08:10:52.014Z,62.58
2023-01-29T08:11:55.024Z,15.27
2023-01-29T08:12:59.670Z,15.07
2023-01-29T08:14:02.723Z,51.40
2023-01-29T08:15:06.203Z,45.25
2023-01-29T08:16:09.542Z,29.35
2023-01-29T08:17:14.218Z,28.42
2023-01-29T08:18:19.277Z,20.25
2023-01-29T08:19:22.435Z,15.73
2023-01-29T08:20:26.207Z,14.45
2023-01-29T08:21:29.592Z,16.02
2023-01-29T08:22:32.482Z,15.80
2023-01-29T08:23:35.570Z,13.45
2023-01-29T08:24:53.291Z,18.17
2023-01-29T08:25:57.306Z,15.98
2023-01-29T08:27:00.265Z,16.30
2023-01-29T08:28:04.090Z,16.90
2023-01-29T08:29:07.259Z,14.32
2023-01-29T08:30:11.307Z,13.75
2023-01-29T08:31:23.018Z,14.87
2023-01-29T08:32:26.501Z,15.27
2023-01-29T08:33:38.607Z,17.30
2023-01-29T08:34:42.529Z,15.93
2023-01-29T08:35:50.888Z,14.40
2023-01-29T08:36:53.952Z,13.25
2023-01-29T08:38:01.950Z,13.93
2023-01-29T08:39:05.132Z,44.97
2023-01-29T08:40:09.847Z,56.40
2023-01-29T08:41:13.299Z,16.35
2023-01-29T08:42:16.933Z,31.33
2023-01-29T08:43:19.999Z,27.80
2023-01-29T08:44:23.056Z,25.15
2023-01-29T08:45:26.125Z,24.17
2023-01-29T08:46:29.067Z,23.50
2023-01-29T08:47:32.351Z,13.80
2023-01-29T08:48:36.579Z,23.12
2023-01-29T08:49:39.611Z,34.50
2023-01-29T08:50:42.618Z,32.45
2023-01-29T08:51:45.689Z,17.90
2023-01-29T08:52:48.858Z,17.60
2023-01-29T08:53:52.247Z,15.90
2023-01-29T08:54:55.195Z,22.58
2023-01-29T08:55:58.222Z,21.70
2023-01-29T08:57:01.326Z,19.25
2023-01-29T08:58:08.289Z,14.00
2023-01-29T08:59:11.704Z,23.20
2023-01-29T09:00:15.710Z,13.70
2023-01-29T09:01:19.400Z,16.42
2023-01-29T09:02:22.420Z,14.45
2023-01-29T09:03:25.663Z,12.68
2023-01-29T09:04:28.711Z,18.35
2023-01-29T09:05:35.632Z,13.50
2023-01-29T09:06:38.891Z,13.48
2023-01-29T09:07:41.994Z,10.52
2023-01-29T09:08:45.399Z,12.02
2023-01-29T09:09:48.457Z,12.88
2023-01-29T09:10:51.621Z,13.70
2023-01-29T09:11:54.817Z,11.45
2023-01-29T09:12:58.010Z,13.93
2023-01-29T09:14:00.978Z,12.95
2023-01-29T09:15:07.534Z,11.18
2023-01-29T09:16:10.962Z,13.05
2023-01-29T09:17:13.899Z,10.90
2023-01-29T09:18:17.176Z,12.57
2023-01-29T09:19:20.320Z,12.68
2023-01-29T09:20:23.736Z,12.85
2023-01-29T09:21:27.299Z,12.25
2023-01-29T09:22:30.355Z,13.02
2023-01-29T09:23:34.103Z,16.02
2023-01-29T09:24:37.182Z,14.57
2023-01-29T09:25:43.527Z,13.25
2023-01-29T09:26:46.531Z,12.57
2023-01-29T09:27:49.516Z,10.70
2023-01-29T09:28:52.522Z,12.43
2023-01-29T09:29:55.656Z,11.23
2023-01-29T09:31:02.879Z,10.43
2023-01-29T09:32:07.052Z,9.45
2023-01-29T09:33:10.642Z,13.75
2023-01-29T09:34:14.522Z,13.60
2023-01-29T09:35:17.927Z,12.57
2023-01-29T09:36:21.053Z,12.98
2023-01-29T09:37:24.168Z,11.68
2023-01-29T09:38:29.320Z,11.90
2023-01-29T09:39:32.713Z,12.20
2023-01-29T09:41:03.205Z,12.30
2023-01-29T09:42:19.112Z,11.50
2023-01-29T09:43:30.596Z,10.80
2023-01-29T09:45:01.972Z,12.30
2023-01-29T09:46:18.686Z,11.48
2023-01-29T09:47:26.034Z,11.07
2023-01-29T09:48:33.983Z,13.15
2023-01-29T09:49:42.670Z,11.95
2023-01-29T09:50:51.159Z,12.82
2023-01-29T09:52:06.126Z,10.30
2023-01-29T09:53:17.855Z,10.27
2023-01-29T09:54:33.941Z,11.07
2023-01-29T09:56:05.400Z,13.82
2023-01-29T09:57:16.086Z,12.85
2023-01-29T09:58:27.880Z,11.00
2023-01-29T10:00:44.378Z,12.77
2023-01-29T10:02:11.847Z,8.25
2023-01-29T10:03:29.798Z,11.12
2023-01-29T10:05:02.947Z,13.02
2023-01-29T10:06:17.688Z,11.20
2023-01-29T10:07:38.950Z,13.05
2023-01-29T10:09:10.616Z,11.18
2023-01-29T10:10:26.959Z,27.60
2023-01-29T10:11:40.348Z,16.15
2023-01-29T10:13:01.775Z,12.00
2023-01-29T10:14:09.995Z,12.48
2023-01-29T10:15:31.514Z,19.48
2023-01-29T10:16:46.679Z,10.57
2023-01-29T10:18:13.766Z,13.00
2023-01-29T10:19:36.154Z,10.57
2023-01-29T10:20:51.666Z,7.95
2023-01-29T10:22:07.039Z,7.55
2023-01-29T10:23:27.865Z,10.95
2023-01-29T10:24:53.702Z,11.15
2023-01-29T10:25:57.142Z,8.55
2023-01-29T10:27:01.335Z,16.42
2023-01-29T10:28:14.882Z,8.93
2023-01-29T10:29:22.273Z,11.70
2023-01-29T10:30:44.840Z,11.12
2023-01-29T10:31:57.427Z,9.77
2023-01-29T10:33:05.106Z,9.50
2023-01-29T10:34:32.606Z,8.60
2023-01-29T10:36:00.552Z,9.55
2023-01-29T10:37:33.790Z,10.48
2023-01-29T10:38:45.373Z,8.82
2023-01-29T10:39:48.608Z,11.55
2023-01-29T10:41:17.797Z,27.13
2023-01-29T10:42:31.585Z,11.95
2023-01-29T10:44:08.733Z,9.18
2023-01-29T10:45:33.898Z,40.88
2023-01-29T10:47:02.082Z,10.65
2023-01-29T10:48:17.216Z,18.12
2023-01-29T10:49:49.716Z,8.68
2023-01-29T10:51:05.817Z,9.60
2023-01-29T10:52:14.632Z,19.10
2023-01-29T10:53:43.973Z,11.40
2023-01-29T10:54:59.574Z,12.00
2023-01-29T10:56:22.653Z,15.02
2023-01-29T10:57:47.886Z,8.75
2023-01-29T10:59:08.110Z,14.77
2023-01-29T11:00:24.168Z,11.60
2023-01-29T11:01:27.468Z,10.93
2023-01-29T11:02:30.600Z,11.88
2023-01-29T11:03:34.595Z,8.02
2023-01-29T11:04:38.190Z,12.65
2023-01-29T11:05:52.328Z,16.35
2023-01-29T11:06:55.410Z,10.32
2023-01-29T11:08:07.459Z,9.10
2023-01-29T11:09:24.180Z,15.38
2023-01-29T11:10:28.177Z,9.02
2023-01-29T11:11:54.884Z,10.57
2023-01-29T11:12:59.475Z,9.52
2023-01-29T11:14:09.216Z,9.60
2023-01-29T11:15:28.511Z,10.25
2023-01-29T11:16:33.887Z,11.82
2023-01-29T11:17:37.331Z,10.82
2023-01-29T11:18:56.515Z,9.93
2023-01-29T11:19:59.688Z,11.27
2023-01-29T11:21:05.519Z,9.95
2023-01-29T11:22:20.522Z,7.82
2023-01-29T11:23:45.628Z,11.52
2023-01-29T11:25:10.354Z,10.43
2023-01-29T11:26:18.457Z,9.75
2023-01-29T11:27:26.767Z,10.82
2023-01-29T11:28:46.563Z,13.25
2023-01-29T11:29:50.532Z,9.82
2023-01-29T11:30:54.553Z,7.37
2023-01-29T11:31:59.714Z,9.35
2023-01-29T11:33:23.923Z,10.30
2023-01-29T11:34:31.541Z,8.25
2023-01-29T11:35:36.662Z,8.95
2023-01-29T11:36:45.260Z,8.15
2023-01-29T11:37:49.110Z,8.02
2023-01-29T11:39:19.820Z,9.02
2023-01-29T11:40:43.743Z,9.30
2023-01-29T11:41:58.058Z,16.80
2023-01-29T11:43:31.145Z,14.75
2023-01-29T11:44:40.270Z,7.03
2023-01-29T11:45:44.161Z,8.27
2023-01-29T11:46:49.849Z,9.55
2023-01-29T11:47:57.851Z,10.57
2023-01-29T11:49:14.408Z,12.70
2023-01-29T11:50:30.329Z,11.27
2023-01-29T11:51:39.397Z,18.45
2023-01-29T11:52:44.452Z,10.88
2023-01-29T11:53:54.152Z,11.02
2023-01-29T11:55:02.702Z,11.40
2023-01-29T11:56:26.115Z,8.73
2023-01-29T11:57:38.375Z,9.85
2023-01-29T11:58:42.727Z,8.75
2023-01-29T11:59:51.172Z,11.88
2023-01-29T12:00:56.857Z,7.65
2023-01-29T12:02:34.541Z,8.07
2023-01-29T12:03:44.182Z,12.65
2023-01-29T12:04:48.298Z,10.52
2023-01-29T12:06:00.671Z,10.52
2023-01-29T12:07:04.345Z,11.00
2023-01-29T12:08:19.286Z,11.85
2023-01-29T12:09:28.531Z,9.85
2023-01-29T12:10:38.437Z,10.57
2023-01-29T12:11:41.627Z,7.55
2023-01-29T12:12:45.139Z,11.98
2023-01-29T12:13:58.558Z,13.00
2023-01-29T12:15:27.859Z,28.08
2023-01-29T12:16:40.369Z,28.92
2023-01-29T12:17:52.050Z,7.47
2023-01-29T12:19:08.010Z,13.40
2023-01-29T12:20:23.587Z,16.50
2023-01-29T12:21:37.651Z,9.10
2023-01-29T12:22:56.834Z,12.68
2023-01-29T12:24:07.313Z,8.65
2023-01-29T12:25:21.702Z,7.75
2023-01-29T12:26:36.126Z,8.93
2023-01-29T12:27:58.342Z,7.40
2023-01-29T12:29:35.255Z,8.70
2023-01-29T12:30:52.685Z,8.50
2023-01-29T12:32:29.297Z,11.50
2023-01-29T12:34:08.219Z,12.77
2023-01-29T12:35:21.531Z,8.98
2023-01-29T12:36:31.574Z,13.02
2023-01-29T12:37:54.677Z,7.37
2023-01-29T12:38:59.560Z,7.57
2023-01-29T12:40:03.216Z,7.87
2023-01-29T12:41:41.560Z,7.28
2023-01-29T12:42:55.404Z,6.53
2023-01-29T12:44:06.865Z,6.12
2023-01-29T12:46:22.745Z,7.75
2023-01-29T12:47:36.190Z,6.53
2023-01-29T12:48:44.323Z,7.30
2023-01-29T12:49:53.022Z,7.00
2023-01-29T12:51:05.495Z,6.60
2023-01-29T12:52:45.452Z,7.37
2023-01-29T12:53:53.648Z,5.60
2023-01-29T12:55:02.139Z,4.22
2023-01-29T12:56:12.672Z,7.03
2023-01-29T12:57:30.489Z,9.48
2023-01-29T12:58:42.323Z,11.90
2023-01-29T13:00:02.453Z,6.53
2023-01-29T13:01:38.462Z,7.07
2023-01-29T13:02:56.179Z,6.75
2023-01-29T13:04:23.281Z,8.75
2023-01-29T13:05:50.875Z,11.70
2023-01-29T13:07:01.104Z,5.60
2023-01-29T13:08:11.647Z,8.85
2023-01-29T13:09:21.135Z,8.15
2023-01-29T13:10:40.960Z,13.45
2023-01-29T13:12:01.395Z,5.62
2023-01-29T13:13:16.745Z,8.18
2023-01-29T13:14:24.412Z,6.80
2023-01-29T13:15:40.167Z,8.05
2023-01-29T13:16:48.112Z,13.43
2023-01-29T13:18:03.501Z,10.35
2023-01-29T13:19:42.151Z,6.30
2023-01-29T13:20:49.083Z,14.73
2023-01-29T13:21:57.172Z,6.82
2023-01-29T13:23:21.342Z,12.60
2023-01-29T13:24:26.961Z,7.65
2023-01-29T13:25:30.280Z,13.27
2023-01-29T13:26:34.847Z,8.95
2023-01-29T13:27:39.990Z,11.43
2023-01-29T13:28:45.960Z,12.00
2023-01-29T13:29:49.918Z,10.80
2023-01-29T13:31:14.099Z,10.20
2023-01-29T13:32:25.548Z,7.40
2023-01-29T13:33:29.208Z,12.88
2023-01-29T13:34:44.605Z,6.60
2023-01-29T13:35:48.038Z,7.00
2023-01-29T13:36:54.879Z,5.95
2023-01-29T13:37:58.399Z,7.53
2023-01-29T13:39:07.062Z,7.72
2023-01-29T13:40:30.850Z,8.52
2023-01-29T13:41:40.443Z,9.40
2023-01-29T13:42:49.441Z,7.10
2023-01-29T13:43:52.868Z,7.30
2023-01-29T13:44:57.948Z,6.40
2023-01-29T13:46:15.467Z,8.30
2023-01-29T13:47:29.367Z,8.90
2023-01-29T13:48:37.205Z,8.73
2023-01-29T13:49:53.105Z,9.70
2023-01-29T13:51:00.628Z,7.87
2023-01-29T13:52:41.186Z,7.62
2023-01-29T13:53:52.684Z,7.57
2023-01-29T13:55:06.403Z,6.53
2023-01-29T13:56:29.531Z,10.20
2023-01-29T13:57:39.976Z,9.27
2023-01-29T13:58:46.411Z,7.95
2023-01-29T13:59:55.543Z,13.43
2023-01-29T14:01:01.872Z,8.55
2023-01-29T14:02:22.422Z,7.10
2023-01-29T14:03:25.703Z,10.00
2023-01-29T14:04:31.855Z,12.20
2023-01-29T14:05:43.307Z,10.77
2023-01-29T14:06:49.409Z,9.07
2023-01-29T14:07:52.794Z,11.30
2023-01-29T14:09:02.117Z,10.73
2023-01-29T14:10:17.076Z,8.43
2023-01-29T14:11:20.982Z,8.30
2023-01-29T14:12:24.914Z,11.05
2023-01-29T14:13:36.121Z,12.27
2023-01-29T14:14:48.830Z,8.13
2023-01-29T14:15:57.966Z,10.00
2023-01-29T14:17:04.736Z,10.27
2023-01-29T14:18:26.440Z,11.98
2023-01-29T14:19:30.816Z,13.38
2023-01-29T14:20:51.879Z,10.60
2023-01-29T14:21:55.491Z,11.35
2023-01-29T14:23:02.393Z,8.98
2023-01-29T14:24:21.896Z,12.18
2023-01-29T14:25:31.874Z,8.48
2023-01-29T14:26:48.131Z,11.45
2023-01-29T14:27:53.191Z,13.62
2023-01-29T14:29:03.659Z,9.88
2023-01-29T14:30:16.967Z,10.85
2023-01-29T14:31:44.449Z,21.58
2023-01-29T14:32:50.352Z,61.55
2023-01-29T14:33:53.967Z,18.77
2023-01-29T14:35:27.557Z,9.18
2023-01-29T14:36:43.935Z,9.23
2023-01-29T14:37:54.380Z,8.13
2023-01-29T14:38:59.890Z,8.23
2023-01-29T14:40:12.460Z,9.73
2023-01-29T14:41:30.609Z,9.63
2023-01-29T14:42:38.717Z,7.80
2023-01-29T14:43:42.481Z,11.90
2023-01-29T14:44:46.523Z,11.52
2023-01-29T14:45:50.716Z,11.05
2023-01-29T14:46:54.234Z,11.18
2023-01-29T14:48:11.081Z,7.60
2023-01-29T14:49:55.106Z,11.18
2023-01-29T14:51:05.880Z,9.45
2023-01-29T14:52:13.028Z,9.18
2023-01-29T14:53:45.377Z,9.80
2023-01-29T14:54:53.862Z,10.05
2023-01-29T14:56:03.441Z,8.68
2023-01-29T14:57:13.158Z,11.10
2023-01-29T14:58:24.474Z,12.60
2023-01-29T14:59:38.654Z,11.93
2023-01-29T15:00:46.921Z,11.65
2023-01-29T15:01:56.783Z,12.50
2023-01-29T15:03:02.562Z,9.63
2023-01-29T15:04:12.991Z,12.68
2023-01-29T15:05:29.150Z,10.25
2023-01-29T15:07:08.020Z,10.32
2023-01-29T15:08:30.515Z,11.05
2023-01-29T15:09:49.076Z,10.05
2023-01-29T15:11:15.525Z,9.40
2023-01-29T15:12:30.532Z,14.15
2023-01-29T15:13:52.047Z,10.68
2023-01-29T15:15:19.078Z,12.88
2023-01-29T15:16:29.655Z,9.50
2023-01-29T15:17:49.943Z,11.18
2023-01-29T15:18:58.275Z,12.68